Time;durP1;ratioP1;P1;durP2;ratioP2;P2;SDS_P1;SDS_P2;PMS_P1;PMS_P2;Temp;Humidity;BMP_temperature;BMP_pressure;BME280_temperature;BME280_humidity;BME280_pressure;Samples;Min_cycle;Max_cycle;Signal;HPM_P1;HPM_P2
2021/08/05 00:01:07;;;;;;;7.40;3.20;;;18.40;94.90;;;;;;5040577;28;20443;-82
2021/08/05 00:03:33;;;;;;;10.47;2.80;;;18.30;95.40;;;;;;5040095;28;20193;-82
2021/08/05 00:05:59;;;;;;;3.93;2.83;;;18.30;95.50;;;;;;5039893;28;20441;-82
2021/08/05 00:08:24;;;;;;;4.40;2.13;;;18.20;95.40;;;;;;5039944;28;20204;-82
2021/08/05 00:10:50;;;;;;;4.80;2.67;;;18.30;95.40;;;;;;5040172;28;20165;-82
2021/08/05 00:13:16;;;;;;;5.40;3.43;;;18.30;95.20;;;;;;5038876;28;20668;-82
2021/08/05 00:15:42;;;;;;;5.03;2.60;;;18.20;95.30;;;;;;5039571;28;20223;-82
2021/08/05 00:18:08;;;;;;;5.37;2.50;;;18.20;95.30;;;;;;5039674;28;20419;-82
2021/08/05 00:20:33;;;;;;;5.53;3.00;;;18.20;95.70;;;;;;5039847;28;20430;-82
2021/08/05 00:22:59;;;;;;;7.23;3.10;;;18.10;95.80;;;;;;5039302;28;20204;-82
2021/08/05 00:25:25;;;;;;;5.20;2.70;;;18.10;96.00;;;;;;5039933;28;20778;-82
2021/08/05 00:27:51;;;;;;;5.40;3.23;;;18.10;96.00;;;;;;5039701;28;20478;-82
2021/08/05 00:30:17;;;;;;;5.43;2.47;;;18.10;95.90;;;;;;5038864;28;20978;-82
2021/08/05 00:32:42;;;;;;;4.40;3.00;;;18.10;96.10;;;;;;5038801;28;20196;-81
2021/08/05 00:35:08;;;;;;;3.83;2.60;;;18.10;96.10;;;;;;5039095;28;20173;-81
2021/08/05 00:37:34;;;;;;;6.47;2.78;;;18.10;96.20;;;;;;5039899;28;20420;-81
2021/08/05 00:40:00;;;;;;;5.47;2.97;;;18.10;96.20;;;;;;5040500;28;20180;-82
2021/08/05 00:42:26;;;;;;;6.20;3.63;;;18.10;96.30;;;;;;5040821;28;20668;-82
2021/08/05 00:44:52;;;;;;;6.97;3.23;;;18.10;96.30;;;;;;5040543;28;20414;-82
2021/08/05 00:47:18;;;;;;;5.63;3.27;;;18.10;96.50;;;;;;5040397;28;20200;-82
2021/08/05 00:49:43;;;;;;;6.00;3.97;;;18.10;96.70;;;;;;5040889;28;20434;-82
2021/08/05 00:52:09;;;;;;;6.57;3.07;;;18.00;96.70;;;;;;5040663;28;20208;-82
2021/08/05 00:54:35;;;;;;;6.27;3.07;;;18.10;96.60;;;;;;5040925;28;20189;-82
2021/08/05 00:57:02;;;;;;;5.90;3.60;;;18.10;96.70;;;;;;5040839;28;20771;-82
2021/08/05 00:59:28;;;;;;;5.90;3.20;;;18.10;96.50;;;;;;5040754;28;20633;-82
2021/08/05 01:02:00;;;;;;;6.70;4.00;;;18.10;96.40;;;;;;5041263;28;20266;-82
2021/08/05 01:04:27;;;;;;;4.60;2.50;;;18.10;96.40;;;;;;5041050;28;20989;-82
2021/08/05 01:07:03;;;;;;;6.15;2.95;;;18.10;96.40;;;;;;5040414;28;20560;-82
2021/08/05 01:09:31;;;;;;;6.15;3.20;;;18.00;96.40;;;;;;5039673;28;20507;-82
2021/08/05 01:12:08;;;;;;;5.80;2.63;;;18.00;96.20;;;;;;5040173;28;20243;-82
2021/08/05 01:14:38;;;;;;;5.35;2.78;;;18.00;96.30;;;;;;5040491;28;20626;-82
2021/08/05 01:17:05;;;;;;;3.97;2.30;;;18.00;96.70;;;;;;5040308;28;20683;-82
2021/08/05 01:19:36;;;;;;;4.20;2.80;;;18.00;96.90;;;;;;5039623;28;20169;-82
2021/08/05 01:22:05;;;;;;;3.45;2.40;;;17.90;96.90;;;;;;5039740;28;20212;-82
2021/08/05 01:24:36;;;;;;;4.65;2.65;;;18.00;96.70;;;;;;5039889;28;20299;-82
2021/08/05 01:27:03;;;;;;;5.80;2.90;;;17.90;96.60;;;;;;5039715;28;20205;-82
2021/08/05 01:29:33;;;;;;;3.67;2.70;;;17.90;96.50;;;;;;5039453;28;20180;-82
2021/08/05 01:32:01;;;;;;;7.05;3.25;;;17.90;96.50;;;;;;5039452;28;20173;-82
2021/08/05 01:34:28;;;;;;;5.20;3.00;;;17.90;96.80;;;;;;5038652;28;20193;-82
2021/08/05 01:36:54;;;;;;;5.35;2.85;;;17.80;96.80;;;;;;5038207;28;20174;-82
2021/08/05 01:39:20;;;;;;;4.30;2.70;;;17.80;96.80;;;;;;5039197;28;20226;-82
2021/08/05 01:41:48;;;;;;;7.45;3.17;;;17.80;96.90;;;;;;5039794;28;20177;-82
2021/08/05 01:44:15;;;;;;;4.57;2.65;;;17.80;96.90;;;;;;5039706;28;20200;-82
2021/08/05 01:46:42;;;;;;;3.80;3.03;;;17.80;96.70;;;;;;5038976;28;20200;-82
2021/08/05 01:49:10;;;;;;;4.07;2.60;;;17.70;96.60;;;;;;5037974;28;20684;-82
2021/08/05 01:51:36;;;;;;;5.65;2.92;;;17.70;96.60;;;;;;5037395;28;20165;-82
2021/08/05 01:54:02;;;;;;;6.18;3.15;;;17.70;96.50;;;;;;5037981;28;20189;-82
2021/08/05 01:56:28;;;;;;;5.80;3.13;;;17.70;96.40;;;;;;5038644;28;20233;-82
2021/08/05 01:58:57;;;;;;;8.23;3.23;;;17.70;96.40;;;;;;5038409;28;20250;-82
2021/08/05 02:01:24;;;;;;;6.72;3.15;;;17.60;96.70;;;;;;5039627;28;20173;-82
2021/08/05 02:04:12;;;;;;;5.18;2.50;;;17.60;96.60;;;;;;5043149;28;20215;-83
2021/08/05 02:06:52;;;;;;;11.93;4.07;;;17.60;96.60;;;;;;5059466;28;20169;-82
2021/08/05 02:09:26;;;;;;;11.77;4.13;;;17.60;96.80;;;;;;5043043;28;20169;-83
2021/08/05 02:11:54;;;;;;;12.48;4.00;;;17.60;96.80;;;;;;5042735;28;20255;-83
2021/08/05 02:14:22;;;;;;;3.38;2.53;;;17.60;96.80;;;;;;5042965;28;20696;-83
2021/08/05 02:16:49;;;;;;;5.13;3.33;;;17.60;96.80;;;;;;5042866;28;20175;-82
2021/08/05 02:19:16;;;;;;;11.88;4.05;;;17.60;96.90;;;;;;5043242;28;20212;-83
2021/08/05 02:21:44;;;;;;;5.32;2.85;;;17.60;97.00;;;;;;5042656;28;20174;-83
2021/08/05 02:24:10;;;;;;;7.03;3.22;;;17.60;97.10;;;;;;5042519;28;20197;-82
2021/08/05 02:26:39;;;;;;;5.65;3.20;;;17.60;97.30;;;;;;5042791;28;20574;-82
2021/08/05 02:29:05;;;;;;;4.90;3.30;;;17.60;97.10;;;;;;5041934;28;20165;-82
2021/08/05 02:31:34;;;;;;;5.55;3.67;;;17.60;97.40;;;;;;5042790;28;20615;-82
2021/08/05 02:34:01;;;;;;;4.80;2.40;;;17.60;97.70;;;;;;5042417;28;20189;-82
2021/08/05 02:36:27;;;;;;;7.70;3.42;;;17.50;98.00;;;;;;5041962;28;20184;-82
2021/08/05 02:38:52;;;;;;;7.80;3.90;;;17.60;98.00;;;;;;5041822;28;20233;-82
2021/08/05 02:41:19;;;;;;;7.37;4.00;;;17.50;98.20;;;;;;5042448;28;20415;-82
2021/08/05 02:43:45;;;;;;;9.68;5.15;;;17.50;98.00;;;;;;5042503;28;20193;-82
2021/08/05 02:46:12;;;;;;;5.97;3.30;;;17.40;98.20;;;;;;5043219;28;20199;-82
2021/08/05 02:48:38;;;;;;;7.65;3.45;;;17.50;97.80;;;;;;5042125;28;20215;-82
2021/08/05 02:51:05;;;;;;;5.47;3.22;;;17.50;97.60;;;;;;5042644;28;20660;-82
2021/08/05 02:53:32;;;;;;;5.72;3.30;;;17.40;97.70;;;;;;5042448;28;20242;-82
2021/08/05 02:55:58;;;;;;;5.70;3.55;;;17.40;97.90;;;;;;5043017;28;20197;-82
2021/08/05 02:58:25;;;;;;;6.13;3.50;;;17.40;97.80;;;;;;5042512;28;20199;-82
2021/08/05 03:00:50;;;;;;;8.75;3.95;;;17.40;97.70;;;;;;5042333;28;20170;-82
2021/08/05 03:03:22;;;;;;;3.23;2.77;;;17.40;97.40;;;;;;5059222;28;20204;-82
2021/08/05 03:05:49;;;;;;;5.63;3.35;;;17.40;97.50;;;;;;5042632;28;20419;-82
2021/08/05 03:08:15;;;;;;;5.90;3.60;;;17.30;97.40;;;;;;5041683;28;20197;-82
2021/08/05 03:10:41;;;;;;;7.70;3.83;;;17.30;97.60;;;;;;5042213;28;20176;-82
2021/08/05 03:13:07;;;;;;;9.43;4.10;;;17.30;97.60;;;;;;5041741;28;20196;-82
2021/08/05 03:15:32;;;;;;;6.37;4.17;;;17.30;97.70;;;;;;5042301;28;20170;-82
2021/08/05 03:17:58;;;;;;;6.20;3.07;;;17.20;97.70;;;;;;5042789;28;20256;-82
2021/08/05 03:20:24;;;;;;;6.00;3.30;;;17.20;97.80;;;;;;5040914;28;20204;-85
2021/08/05 03:22:50;;;;;;;6.23;3.40;;;17.20;97.70;;;;;;5040330;28;20215;-84
2021/08/05 03:25:15;;;;;;;7.17;3.40;;;17.10;98.00;;;;;;5039915;28;20418;-84
2021/08/05 03:27:41;;;;;;;9.50;3.60;;;17.10;98.30;;;;;;5039943;28;20563;-87
2021/08/05 03:30:08;;;;;;;6.93;3.50;;;17.00;98.40;;;;;;5038292;28;20726;-87
2021/08/05 03:32:34;;;;;;;7.85;3.67;;;16.90;99.00;;;;;;5038118;28;20419;-86
2021/08/05 03:34:59;;;;;;;7.23;3.50;;;16.80;99.10;;;;;;5038569;28;20165;-87
2021/08/05 03:37:25;;;;;;;5.87;2.70;;;16.80;99.10;;;;;;5038328;28;20469;-86
2021/08/05 03:39:51;;;;;;;7.97;5.05;;;16.80;99.10;;;;;;5038135;28;20992;-85
2021/08/05 03:42:17;;;;;;;6.10;3.83;;;16.70;99.10;;;;;;5039132;28;20196;-85
2021/08/05 03:44:43;;;;;;;6.83;3.47;;;16.70;99.10;;;;;;5038767;28;20495;-85
2021/08/05 03:47:09;;;;;;;7.20;3.53;;;16.70;99.10;;;;;;5038432;28;20970;-86
2021/08/05 03:49:34;;;;;;;5.53;3.40;;;16.70;99.10;;;;;;5038968;28;20272;-86
2021/08/05 03:52:00;;;;;;;4.90;3.57;;;16.70;99.10;;;;;;5038232;28;20173;-86
2021/08/05 03:54:26;;;;;;;5.87;3.30;;;16.70;99.10;;;;;;5037768;28;20193;-86
2021/08/05 03:56:52;;;;;;;7.20;3.13;;;16.70;99.10;;;;;;5040177;28;21006;-85
2021/08/05 03:59:18;;;;;;;9.87;3.90;;;16.70;99.10;;;;;;5039480;28;20223;-85
2021/08/05 04:01:43;;;;;;;7.33;3.10;;;16.70;99.10;;;;;;5039626;28;20763;-84
2021/08/05 04:04:09;;;;;;;10.27;3.50;;;16.80;99.10;;;;;;5039700;28;20864;-85
2021/08/05 04:06:35;;;;;;;4.57;3.50;;;16.80;99.10;;;;;;5039389;28;20500;-85
2021/08/05 04:09:01;;;;;;;6.97;2.83;;;16.80;99.10;;;;;;5038982;28;20676;-84
2021/08/05 04:11:26;;;;;;;6.77;3.60;;;16.80;99.10;;;;;;5039409;28;20407;-85
2021/08/05 04:13:52;;;;;;;9.57;3.93;;;16.80;99.10;;;;;;5039158;28;20250;-85
2021/08/05 04:16:18;;;;;;;9.37;3.87;;;16.80;99.10;;;;;;5039525;28;20408;-86
2021/08/05 04:18:44;;;;;;;13.90;4.43;;;16.80;99.10;;;;;;5040417;28;20195;-83
2021/08/05 04:21:09;;;;;;;7.10;3.90;;;16.80;99.10;;;;;;5040516;28;20408;-84
2021/08/05 04:23:35;;;;;;;7.70;4.10;;;16.80;99.10;;;;;;5040097;28;20292;-83
2021/08/05 04:26:01;;;;;;;8.00;4.43;;;16.80;99.10;;;;;;5039428;28;20502;-84
2021/08/05 04:28:27;;;;;;;9.55;4.25;;;16.80;99.10;;;;;;5039714;28;20227;-84
2021/08/05 04:30:53;;;;;;;9.10;4.43;;;16.70;99.10;;;;;;5039076;28;20176;-84
2021/08/05 04:33:20;;;;;;;10.57;4.20;;;16.70;99.10;;;;;;5039340;28;20669;-84
2021/08/05 04:35:45;;;;;;;7.25;3.70;;;16.80;99.10;;;;;;5039074;28;20466;-84
2021/08/05 04:38:12;;;;;;;11.73;4.67;;;16.80;99.10;;;;;;5039434;28;20177;-84
2021/08/05 04:40:38;;;;;;;10.65;5.55;;;16.80;99.10;;;;;;5039324;28;20866;-84
2021/08/05 04:43:04;;;;;;;5.47;3.40;;;16.90;99.10;;;;;;5039084;28;20215;-84
2021/08/05 04:45:30;;;;;;;12.60;4.88;;;16.90;99.10;;;;;;5039122;28;20256;-84
2021/08/05 04:48:01;;;;;;;10.07;4.47;;;17.00;99.10;;;;;;5039112;28;20223;-84
2021/08/05 04:50:30;;;;;;;8.45;4.80;;;17.10;99.10;;;;;;5039870;28;20446;-84
2021/08/05 04:52:56;;;;;;;10.32;4.78;;;17.10;99.10;;;;;;5039106;28;20193;-84
2021/08/05 04:55:22;;;;;;;7.10;3.78;;;17.20;99.10;;;;;;5039168;28;20205;-85
2021/08/05 04:58:06;;;;;;;9.30;4.97;;;17.20;99.10;;;;;;5039172;28;20645;-84
2021/08/05 05:00:34;;;;;;;9.27;5.28;;;17.30;99.10;;;;;;5039595;28;20205;-84
2021/08/05 05:03:00;;;;;;;12.18;5.45;;;17.30;99.10;;;;;;5039257;28;20200;-84
2021/08/05 05:05:27;;;;;;;8.52;5.20;;;17.30;99.10;;;;;;5038664;28;20323;-84
2021/08/05 05:07:53;;;;;;;14.68;3.85;;;17.30;99.10;;;;;;5037958;28;20291;-85
2021/08/05 05:10:21;;;;;;;9.82;4.65;;;17.40;99.10;;;;;;5037898;28;20215;-85
2021/08/05 05:12:47;;;;;;;9.10;5.10;;;17.40;99.10;;;;;;5038038;28;20189;-85
2021/08/05 05:15:14;;;;;;;10.43;4.85;;;17.40;99.10;;;;;;5037489;28;20255;-86
2021/08/05 05:17:41;;;;;;;6.78;3.75;;;17.50;99.10;;;;;;5038086;28;20262;-85
2021/08/05 05:20:09;;;;;;;7.18;4.22;;;17.50;99.10;;;;;;5037340;28;20177;-85
2021/08/05 05:22:36;;;;;;;15.02;5.05;;;17.60;99.10;;;;;;5037593;28;20184;-85
2021/08/05 05:25:02;;;;;;;10.88;5.70;;;17.60;99.10;;;;;;5037346;28;20169;-85
2021/08/05 05:27:28;;;;;;;10.40;5.25;;;17.60;99.10;;;;;;5037387;28;20587;-85
2021/08/05 05:29:56;;;;;;;8.40;4.80;;;17.60;99.10;;;;;;5037619;28;20166;-85
2021/08/05 05:32:26;;;;;;;10.55;5.50;;;17.60;99.10;;;;;;5037696;28;20507;-84
2021/08/05 05:34:52;;;;;;;15.98;5.68;;;17.70;99.10;;;;;;5037846;28;20164;-85
2021/08/05 05:37:18;;;;;;;9.35;5.15;;;17.70;99.10;;;;;;5037267;28;20204;-85
2021/08/05 05:39:45;;;;;;;11.90;5.15;;;17.70;99.10;;;;;;5037839;28;20662;-85
2021/08/05 05:42:11;;;;;;;14.15;6.80;;;17.70;99.10;;;;;;5036942;28;20177;-84
2021/08/05 05:44:36;;;;;;;9.70;5.67;;;17.70;99.10;;;;;;5037120;28;20330;-85
2021/08/05 05:47:02;;;;;;;14.53;5.93;;;17.80;99.10;;;;;;5036808;28;20473;-84
2021/08/05 05:49:28;;;;;;;18.10;5.28;;;17.80;99.10;;;;;;5036650;28;20514;-84
2021/08/05 05:51:54;;;;;;;14.10;5.80;;;17.80;99.00;;;;;;5036731;28;20195;-85
2021/08/05 05:54:20;;;;;;;9.10;5.10;;;17.90;99.10;;;;;;5036407;28;20235;-85
2021/08/05 05:56:45;;;;;;;8.43;4.87;;;17.90;99.10;;;;;;5036216;28;20166;-85
2021/08/05 05:59:11;;;;;;;9.77;5.27;;;17.90;99.10;;;;;;5036209;28;20230;-85
2021/08/05 06:01:37;;;;;;;10.83;5.30;;;18.00;99.10;;;;;;5036837;28;20442;-84
2021/08/05 06:04:03;;;;;;;11.23;5.10;;;18.00;99.00;;;;;;5038529;28;20192;-81
2021/08/05 06:06:28;;;;;;;11.90;4.90;;;18.10;98.80;;;;;;5041261;28;20260;-82
2021/08/05 06:08:56;;;;;;;13.63;5.00;;;18.10;98.30;;;;;;5041164;28;20546;-81
2021/08/05 06:11:26;;;;;;;9.50;5.00;;;18.10;98.30;;;;;;5040881;28;20181;-82
2021/08/05 06:13:53;;;;;;;8.07;4.20;;;18.10;98.30;;;;;;5041805;28;20230;-81
2021/08/05 06:16:19;;;;;;;11.40;5.45;;;18.10;98.30;;;;;;5041479;28;20625;-81
2021/08/05 06:18:45;;;;;;;10.80;5.43;;;18.20;97.90;;;;;;5041061;28;20176;-81
2021/08/05 06:21:10;;;;;;;10.77;5.40;;;18.20;97.80;;;;;;5040886;28;20447;-81
2021/08/05 06:23:36;;;;;;;10.27;4.20;;;18.30;98.00;;;;;;5040898;28;20197;-81
2021/08/05 06:26:02;;;;;;;9.07;4.37;;;18.30;98.00;;;;;;5040824;28;20177;-81
2021/08/05 06:28:28;;;;;;;7.30;4.23;;;18.30;97.80;;;;;;5039723;28;20201;-81
2021/08/05 06:30:54;;;;;;;6.80;4.40;;;18.40;97.40;;;;;;5040616;28;20415;-80
2021/08/05 06:33:19;;;;;;;10.87;4.10;;;18.50;97.30;;;;;;5040650;28;20501;-81
2021/08/05 06:35:45;;;;;;;6.80;3.63;;;18.60;96.40;;;;;;5040930;28;20403;-81
2021/08/05 06:38:11;;;;;;;10.73;3.80;;;18.70;95.90;;;;;;5040077;28;20185;-81
2021/08/05 06:40:36;;;;;;;5.30;3.90;;;18.80;95.70;;;;;;5039938;28;20234;-81
2021/08/05 06:43:02;;;;;;;7.73;3.13;;;18.90;94.80;;;;;;5039639;28;20201;-83
2021/08/05 06:45:28;;;;;;;7.40;3.13;;;19.00;94.70;;;;;;5039738;28;20189;-83
2021/08/05 06:47:54;;;;;;;12.10;3.93;;;19.10;94.30;;;;;;5041035;28;20192;-83
2021/08/05 06:50:19;;;;;;;7.80;3.70;;;19.30;93.40;;;;;;5045076;28;20169;-81
2021/08/05 06:52:47;;;;;;;10.70;4.13;;;19.40;93.30;;;;;;5044003;28;20279;-82
2021/08/05 06:55:12;;;;;;;9.20;3.97;;;19.50;93.10;;;;;;5043789;28;20464;-82
2021/08/05 06:57:38;;;;;;;12.10;4.00;;;19.60;92.30;;;;;;5043569;28;20177;-83
2021/08/05 07:00:05;;;;;;;10.38;4.47;;;19.80;91.60;;;;;;5044582;28;20208;-81
2021/08/05 07:02:31;;;;;;;17.85;4.65;;;20.00;91.30;;;;;;5044372;28;20268;-81
2021/08/05 07:05:01;;;;;;;7.23;3.60;;;20.10;90.20;;;;;;5041551;28;20219;-84
2021/08/05 07:07:28;;;;;;;6.63;3.20;;;20.20;90.10;;;;;;5042850;28;20557;-81
2021/08/05 07:09:54;;;;;;;10.32;3.55;;;20.30;88.00;;;;;;5042460;28;20169;-82
2021/08/05 07:12:19;;;;;;;12.50;4.07;;;20.30;88.80;;;;;;5043187;28;20169;-83
2021/08/05 07:14:45;;;;;;;9.10;3.23;;;20.40;89.80;;;;;;5042699;28;20408;-83
2021/08/05 07:17:11;;;;;;;30.03;5.20;;;20.40;89.40;;;;;;5042761;28;20850;-83
2021/08/05 07:19:37;;;;;;;11.43;4.50;;;20.60;86.70;;;;;;5042972;28;20173;-82
2021/08/05 07:22:03;;;;;;;7.23;3.70;;;20.70;87.80;;;;;;5041245;28;20242;-83
2021/08/05 07:24:29;;;;;;;8.60;4.45;;;20.80;86.70;;;;;;5041234;28;20196;-83
2021/08/05 07:26:54;;;;;;;6.20;4.17;;;20.80;86.90;;;;;;5041223;28;20654;-80
2021/08/05 07:29:20;;;;;;;10.87;3.60;;;21.00;87.10;;;;;;5040924;28;20192;-81
2021/08/05 07:31:46;;;;;;;8.37;3.80;;;21.00;86.90;;;;;;5039960;28;20218;-80
2021/08/05 07:34:12;;;;;;;10.23;4.50;;;21.10;86.20;;;;;;5040670;28;20189;-81
2021/08/05 07:36:38;;;;;;;7.40;3.93;;;21.00;85.80;;;;;;5041369;28;20407;-81
2021/08/05 07:39:06;;;;;;;12.90;3.67;;;21.10;84.80;;;;;;5040827;28;20184;-82
2021/08/05 07:41:31;;;;;;;7.32;3.30;;;21.10;85.60;;;;;;5040452;28;20424;-82
2021/08/05 07:43:57;;;;;;;6.70;3.70;;;21.10;84.20;;;;;;5040235;28;20185;-83
2021/08/05 07:46:23;;;;;;;6.60;3.70;;;21.10;85.10;;;;;;5039111;28;20412;-80
2021/08/05 07:48:49;;;;;;;7.07;3.20;;;21.10;85.10;;;;;;5038781;28;20211;-79
2021/08/05 07:51:14;;;;;;;5.40;3.00;;;21.20;85.10;;;;;;5038456;28;20583;-79
2021/08/05 07:53:40;;;;;;;4.77;3.30;;;21.40;83.90;;;;;;5038842;28;20185;-79
2021/08/05 07:56:06;;;;;;;16.33;4.20;;;21.50;84.50;;;;;;5038664;28;20257;-79
2021/08/05 07:58:32;;;;;;;5.20;2.97;;;21.60;84.80;;;;;;5056868;28;20215;-81
2021/08/05 08:00:57;;;;;;;7.33;3.07;;;21.80;82.00;;;;;;5040451;28;20172;-84
2021/08/05 08:03:23;;;;;;;6.40;3.37;;;21.80;81.90;;;;;;5039011;28;20188;-84
2021/08/05 08:05:49;;;;;;;5.10;3.00;;;22.00;79.80;;;;;;5037840;28;20173;-84
2021/08/05 08:08:16;;;;;;;5.70;2.90;;;22.00;79.20;;;;;;5037456;28;20193;-84
2021/08/05 08:10:42;;;;;;;4.38;2.50;;;21.90;80.50;;;;;;5037325;28;20436;-85
2021/08/05 08:13:08;;;;;;;5.55;3.30;;;22.00;80.50;;;;;;5037862;28;20189;-85
2021/08/05 08:15:34;;;;;;;7.10;3.10;;;22.00;81.60;;;;;;5037209;28;20537;-85
2021/08/05 08:18:00;;;;;;;2.70;2.20;;;22.10;80.50;;;;;;5037689;28;20266;-85
2021/08/05 08:20:25;;;;;;;5.33;3.10;;;22.10;79.90;;;;;;5038010;28;20177;-84
2021/08/05 08:22:51;;;;;;;12.43;3.73;;;22.10;79.90;;;;;;5037185;28;20459;-83
2021/08/05 08:25:17;;;;;;;6.67;3.13;;;22.20;79.10;;;;;;5036869;28;20189;-83
2021/08/05 08:27:43;;;;;;;8.30;2.90;;;22.20;81.70;;;;;;5037750;28;20451;-83
2021/08/05 08:30:11;;;;;;;4.43;3.22;;;22.10;79.90;;;;;;5037871;28;20412;-84
2021/08/05 08:32:37;;;;;;;5.45;2.70;;;22.10;78.80;;;;;;5037414;28;20176;-84
2021/08/05 08:35:06;;;;;;;5.75;3.13;;;22.00;78.90;;;;;;5037489;28;20165;-83
2021/08/05 08:37:32;;;;;;;11.80;3.30;;;22.00;79.10;;;;;;5037784;28;20237;-83
2021/08/05 08:39:57;;;;;;;9.13;3.00;;;21.90;78.30;;;;;;5038297;28;20224;-83
2021/08/05 08:42:23;;;;;;;8.77;3.40;;;21.80;78.90;;;;;;5037510;28;20415;-84
2021/08/05 08:44:49;;;;;;;6.63;3.23;;;21.80;78.40;;;;;;5037212;28;20169;-84
2021/08/05 08:47:15;;;;;;;7.10;2.53;;;21.80;78.10;;;;;;5036918;28;20459;-83
2021/08/05 08:49:48;;;;;;;4.68;2.60;;;21.80;81.30;;;;;;5037129;28;20278;-84
2021/08/05 08:52:14;;;;;;;7.88;2.80;;;21.80;80.30;;;;;;5037360;28;20169;-84
2021/08/05 08:54:44;;;;;;;4.50;2.42;;;21.80;78.50;;;;;;5037090;28;20185;-83
2021/08/05 08:57:13;;;;;;;5.80;2.92;;;21.80;81.20;;;;;;5037312;28;20177;-84
2021/08/05 08:59:40;;;;;;;4.97;2.92;;;22.00;78.30;;;;;;5036738;28;20645;-84
2021/08/05 09:02:06;;;;;;;3.90;2.30;;;22.10;78.30;;;;;;5037141;28;20180;-83
2021/08/05 09:04:34;;;;;;;11.57;2.90;;;22.20;78.50;;;;;;5036759;28;20208;-83
2021/08/05 09:06:59;;;;;;;5.15;3.15;;;22.40;76.20;;;;;;5037325;28;20204;-84
2021/08/05 09:09:25;;;;;;;6.43;2.53;;;22.60;77.60;;;;;;5037515;28;20165;-84
2021/08/05 09:11:51;;;;;;;5.10;2.90;;;22.70;75.80;;;;;;5036518;28;20195;-84
2021/08/05 09:14:39;;;;;;;5.72;2.63;;;22.70;75.50;;;;;;5036447;28;20669;-84
2021/08/05 09:17:42;;;;;;;4.55;2.63;;;22.80;74.20;;;;;;5036828;28;20173;-83
2021/08/05 09:20:11;;;;;;;6.00;2.60;;;23.00;77.00;;;;;;5017056;28;20547;-84
2021/08/05 09:22:43;;;;;;;4.15;2.83;;;23.20;72.40;;;;;;5035918;28;20177;-83
2021/08/05 09:25:19;;;;;;;6.55;2.83;;;23.60;74.60;;;;;;5036399;28;20276;-84
2021/08/05 09:27:46;;;;;;;9.90;2.67;;;23.80;71.60;;;;;;5035934;28;20197;-83
2021/08/05 09:30:26;;;;;;;8.02;2.90;;;24.00;72.00;;;;;;5035983;28;20588;-85
2021/08/05 09:32:52;;;;;;;4.10;2.63;;;24.20;70.80;;;;;;5035992;28;20200;-84
2021/08/05 09:35:18;;;;;;;5.27;3.03;;;24.40;68.80;;;;;;5035913;28;20177;-84
2021/08/05 09:37:43;;;;;;;4.90;2.63;;;24.50;68.90;;;;;;5035864;28;20432;-84
2021/08/05 09:40:11;;;;;;;4.80;2.50;;;24.80;69.20;;;;;;5035832;28;20271;-84
2021/08/05 09:42:37;;;;;;;5.47;2.67;;;25.10;64.40;;;;;;5035966;28;20274;-84
2021/08/05 09:45:05;;;;;;;3.42;2.60;;;25.20;64.10;;;;;;5035786;28;20173;-85
2021/08/05 09:47:30;;;;;;;3.33;2.30;;;25.30;67.00;;;;;;5035907;28;20220;-84
2021/08/05 09:49:57;;;;;;;3.93;2.43;;;25.30;67.30;;;;;;5035676;28;20189;-84
2021/08/05 09:52:34;;;;;;;3.63;2.40;;;25.50;64.10;;;;;;5036374;28;20174;-84
2021/08/05 09:55:03;;;;;;;5.82;2.50;;;25.50;63.50;;;;;;5035699;28;20183;-84
2021/08/05 09:57:37;;;;;;;4.07;2.33;;;25.40;63.70;;;;;;5035649;28;20184;-83
2021/08/05 10:00:07;;;;;;;3.90;2.22;;;25.20;65.60;;;;;;5036055;28;20252;-84
2021/08/05 10:02:47;;;;;;;3.80;2.45;;;25.10;65.20;;;;;;5035816;28;20262;-84
2021/08/05 10:05:18;;;;;;;5.82;2.58;;;25.20;65.60;;;;;;5035822;28;20165;-84
2021/08/05 10:07:54;;;;;;;3.35;2.25;;;25.30;64.90;;;;;;5035675;28;20197;-84
2021/08/05 10:10:23;;;;;;;4.05;2.35;;;25.40;64.40;;;;;;5036016;28;20594;-84
2021/08/05 10:12:56;;;;;;;5.53;2.88;;;25.40;62.40;;;;;;5038984;28;20276;-85
2021/08/05 10:15:23;;;;;;;2.60;1.73;;;25.50;63.30;;;;;;5035697;28;20601;-85
2021/08/05 10:18:02;;;;;;;1.98;1.52;;;25.50;60.80;;;;;;5035899;28;20177;-85
2021/08/05 10:20:30;;;;;;;6.03;2.25;;;25.40;61.00;;;;;;5035361;28;20195;-85
2021/08/05 10:22:57;;;;;;;5.03;2.15;;;25.20;61.20;;;;;;5036701;28;20242;-85
2021/08/05 10:25:27;;;;;;;3.03;1.90;;;25.10;62.00;;;;;;5039302;28;20177;-86
2021/08/05 10:27:55;;;;;;;3.72;2.25;;;25.00;63.00;;;;;;5040557;28;20556;-83
2021/08/05 10:30:21;;;;;;;3.28;1.95;;;25.00;66.30;;;;;;5040385;28;20169;-84
2021/08/05 10:32:48;;;;;;;4.43;2.25;;;25.10;66.90;;;;;;5040313;28;20541;-83
2021/08/05 10:35:15;;;;;;;6.22;2.45;;;25.00;63.50;;;;;;5040409;28;20180;-84
2021/08/05 10:37:42;;;;;;;3.88;1.90;;;24.90;63.70;;;;;;5039809;28;20268;-83
2021/08/05 10:40:10;;;;;;;4.18;1.75;;;24.80;62.40;;;;;;5040171;28;20181;-84
2021/08/05 10:42:36;;;;;;;3.15;1.95;;;24.80;62.00;;;;;;5039801;28;20180;-83
2021/08/05 10:45:03;;;;;;;3.58;1.88;;;24.70;63.00;;;;;;5040587;28;20550;-83
2021/08/05 10:47:31;;;;;;;2.83;1.48;;;24.80;62.30;;;;;;5040059;28;20193;-84
2021/08/05 10:50:08;;;;;;;3.10;1.30;;;25.00;64.60;;;;;;5039371;28;20185;-84
2021/08/05 10:52:37;;;;;;;2.92;1.75;;;25.20;63.00;;;;;;5039615;28;20220;-84
2021/08/05 10:55:04;;;;;;;2.45;1.55;;;25.40;61.00;;;;;;5039333;28;20654;-84
2021/08/05 10:57:30;;;;;;;3.05;1.73;;;25.70;59.30;;;;;;5039139;28;20176;-83
2021/08/05 11:00:00;;;;;;;2.33;1.60;;;25.70;58.80;;;;;;5056586;28;20173;-84
2021/08/05 11:02:46;;;;;;;1.95;1.50;;;25.60;60.60;;;;;;5039057;28;20180;-84
2021/08/05 11:05:33;;;;;;;3.17;1.70;;;25.70;58.80;;;;;;5038891;28;20181;-84
2021/08/05 11:08:08;;;;;;;1.92;1.38;;;25.80;61.60;;;;;;5031823;28;20211;-85
2021/08/05 11:10:37;;;;;;;3.22;1.35;;;25.90;60.50;;;;;;5039648;28;20564;-83
2021/08/05 11:13:09;;;;;;;5.45;2.03;;;25.90;57.50;;;;;;5039370;28;20192;-83
2021/08/05 11:15:34;;;;;;;2.08;1.30;;;25.80;57.70;;;;;;5038885;28;20174;-84
2021/08/05 11:18:09;;;;;;;2.17;1.50;;;25.70;59.30;;;;;;5039169;28;20180;-84
2021/08/05 11:20:40;;;;;;;3.55;1.70;;;25.70;60.60;;;;;;5039179;28;20176;-84
2021/08/05 11:23:07;;;;;;;2.33;1.48;;;25.60;62.80;;;;;;5039107;28;20292;-83
2021/08/05 11:26:06;;;;;;;2.53;1.50;;;25.40;62.30;;;;;;5038742;28;20223;-84
2021/08/05 11:28:41;;;;;;;3.35;1.45;;;25.40;61.30;;;;;;5017389;28;20221;-84
2021/08/05 11:31:09;;;;;;;3.45;1.95;;;25.50;63.90;;;;;;5039401;28;20267;-84
2021/08/05 11:33:38;;;;;;;2.88;1.60;;;25.50;60.30;;;;;;5040133;28;20196;-84
2021/08/05 11:36:14;;;;;;;1.67;1.25;;;25.70;62.40;;;;;;5040430;28;20188;-85
2021/08/05 11:38:59;;;;;;;1.40;1.35;;;25.90;62.10;;;;;;5040164;28;20169;-83
2021/08/05 11:42:00;;;;;;;3.45;1.30;;;26.40;60.00;;;;;;5039092;28;20541;-84
2021/08/05 11:44:41;;;;;;;6.20;1.60;;;26.80;58.10;;;;;;5036277;28;20223;-85
2021/08/05 11:47:20;;;;;;;2.25;1.30;;;26.80;55.50;;;;;;5038312;28;20196;-85
2021/08/05 11:50:00;;;;;;;1.98;1.25;;;26.90;56.00;;;;;;5038272;28;20277;-84
2021/08/05 11:52:29;;;;;;;2.20;1.20;;;26.80;54.90;;;;;;5037977;28;20196;-84
2021/08/05 11:55:01;;;;;;;4.60;1.80;;;26.90;59.80;;;;;;5038099;28;20197;-84
2021/08/05 11:57:34;;;;;;;3.17;1.67;;;27.10;55.50;;;;;;5037972;28;20264;-84
2021/08/05 12:00:03;;;;;;;1.80;1.33;;;27.10;54.30;;;;;;5037882;28;20172;-84
2021/08/05 12:02:30;;;;;;;1.67;1.20;;;26.90;56.20;;;;;;5038254;28;20188;-84
2021/08/05 12:04:56;;;;;;;2.75;1.20;;;26.80;55.40;;;;;;5037561;28;20208;-84
2021/08/05 12:07:22;;;;;;;2.85;1.45;;;26.60;56.00;;;;;;5055603;28;20204;-84
2021/08/05 12:09:50;;;;;;;2.63;1.57;;;26.60;57.20;;;;;;5038099;28;20169;-86
2021/08/05 12:12:16;;;;;;;2.38;1.48;;;26.80;57.90;;;;;;5038411;28;20169;-83
2021/08/05 12:14:49;;;;;;;5.20;2.30;;;27.10;59.10;;;;;;5037779;28;20557;-86
2021/08/05 12:17:15;;;;;;;12.13;2.03;;;27.30;55.00;;;;;;5038094;28;20173;-83
2021/08/05 12:19:48;;;;;;;1.80;1.43;;;27.40;55.30;;;;;;5054338;28;20706;-86
2021/08/05 12:22:14;;;;;;;4.07;2.20;;;27.40;53.80;;;;;;5037450;28;20426;-86
2021/08/05 12:24:50;;;;;;;5.37;1.60;;;27.40;54.10;;;;;;5037779;28;20585;-87
2021/08/05 12:27:19;;;;;;;2.85;1.67;;;27.30;53.90;;;;;;5037592;28;20997;-83
2021/08/05 12:30:07;;;;;;;2.47;2.00;;;27.10;53.40;;;;;;5037934;28;20629;-84
2021/08/05 12:32:35;;;;;;;3.45;1.73;;;26.80;55.00;;;;;;5037889;28;20161;-84
2021/08/05 12:35:01;;;;;;;3.30;2.15;;;;;;;;;;5037499;28;20165;-84
2021/08/05 12:37:27;;;;;;;4.72;2.10;;;27.00;54.30;;;;;;5055364;28;20242;-84
2021/08/05 12:39:53;;;;;;;2.40;1.60;;;27.00;54.30;;;;;;5037544;28;20203;-84
2021/08/05 12:42:19;;;;;;;2.03;1.40;;;26.80;54.70;;;;;;5037520;28;20200;-84
2021/08/05 12:44:46;;;;;;;11.13;1.60;;;26.70;56.40;;;;;;5037402;28;20223;-84
2021/08/05 12:47:13;;;;;;;4.32;1.90;;;26.50;57.00;;;;;;5037159;28;20189;-84
2021/08/05 12:49:39;;;;;;;2.55;1.60;;;26.40;57.90;;;;;;5039671;28;20181;-84